createdAt,value
2022-10-16T00:00:56.136Z,7.40
2022-10-16T00:03:26.571Z,6.70
2022-10-16T00:06:01.086Z,7.63
2022-10-16T00:08:28.233Z,5.50
2022-10-16T00:11:01.428Z,6.10
2022-10-16T00:13:29.296Z,6.95
2022-10-16T00:15:57.869Z,12.30
2022-10-16T00:18:25.493Z,8.57
2022-10-16T00:20:52.502Z,10.15
2022-10-16T00:23:19.489Z,8.77
2022-10-16T00:25:54.898Z,10.32
2022-10-16T00:28:21.840Z,12.88
2022-10-16T00:30:48.562Z,12.93
2022-10-16T00:33:15.212Z,8.40
2022-10-16T00:35:41.791Z,8.50
2022-10-16T00:38:08.589Z,12.18
2022-10-16T00:40:35.209Z,8.77
2022-10-16T00:43:01.861Z,9.35
2022-10-16T00:45:28.562Z,12.50
2022-10-16T00:47:57.468Z,10.60
2022-10-16T00:50:33.856Z,10.82
2022-10-16T00:53:02.462Z,7.90
2022-10-16T00:55:31.135Z,11.07
2022-10-16T00:57:59.054Z,7.50
2022-10-16T01:00:27.787Z,7.80
2022-10-16T01:03:00.872Z,10.10
2022-10-16T01:05:35.948Z,8.88
2022-10-16T01:08:11.965Z,9.88
2022-10-16T01:11:04.622Z,11.82
2022-10-16T01:13:39.661Z,8.90
2022-10-16T01:16:31.985Z,12.02
2022-10-16T01:19:11.059Z,11.98
2022-10-16T01:21:42.585Z,9.90
2022-10-16T01:24:32.619Z,10.45
2022-10-16T01:26:59.198Z,16.63
2022-10-16T01:29:51.234Z,13.70
2022-10-16T01:32:25.096Z,14.75
2022-10-16T01:34:59.271Z,13.02
2022-10-16T01:37:41.348Z,20.23
2022-10-16T01:40:13.945Z,16.65
2022-10-16T01:42:45.810Z,16.27
2022-10-16T01:45:15.927Z,18.42
2022-10-16T01:47:44.707Z,16.77
2022-10-16T01:50:13.312Z,18.97
2022-10-16T01:52:44.749Z,18.90
2022-10-16T01:55:15.554Z,18.52
2022-10-16T01:57:47.028Z,23.45
2022-10-16T02:00:15.486Z,17.38
2022-10-16T02:02:45.679Z,16.38
2022-10-16T02:05:31.882Z,20.05
2022-10-16T02:08:00.506Z,16.90
2022-10-16T02:10:32.438Z,20.77
2022-10-16T02:13:09.889Z,20.02
2022-10-16T02:15:36.595Z,22.60
2022-10-16T02:18:05.994Z,21.40
2022-10-16T02:20:39.367Z,21.63
2022-10-16T02:23:09.126Z,25.75
2022-10-16T02:28:09.883Z,21.95
2022-10-16T02:30:43.783Z,21.83
2022-10-16T02:33:14.537Z,22.65
2022-10-16T02:35:42.806Z,22.58
2022-10-16T02:40:43.662Z,22.55
2022-10-16T02:43:11.731Z,20.70
2022-10-16T02:45:38.673Z,20.67
2022-10-16T02:48:05.721Z,21.45
2022-10-16T02:50:32.459Z,23.30
2022-10-16T02:52:59.052Z,23.55
2022-10-16T02:55:25.990Z,23.13
2022-10-16T02:57:53.347Z,15.70
2022-10-16T03:00:20.027Z,19.30
2022-10-16T03:02:48.011Z,17.48
2022-10-16T03:05:15.497Z,16.95
2022-10-16T03:07:42.353Z,23.83
2022-10-16T03:10:09.448Z,21.77
2022-10-16T03:12:36.133Z,22.58
2022-10-16T03:15:03.474Z,22.45
2022-10-16T03:17:30.139Z,24.27
2022-10-16T03:19:56.818Z,27.35
2022-10-16T03:22:23.474Z,28.35
2022-10-16T03:24:50.199Z,36.15
2022-10-16T03:27:16.797Z,39.75
2022-10-16T03:29:43.388Z,22.55
2022-10-16T03:32:09.963Z,58.78
2022-10-16T03:34:36.656Z,27.13
2022-10-16T03:37:03.597Z,31.40
2022-10-16T03:39:30.202Z,28.05
2022-10-16T03:41:56.871Z,24.92
2022-10-16T03:44:23.429Z,24.65
2022-10-16T03:46:50.149Z,26.10
2022-10-16T03:49:16.784Z,23.90
2022-10-16T03:51:43.644Z,24.27
2022-10-16T03:54:11.070Z,23.00
2022-10-16T03:56:37.730Z,29.85
2022-10-16T03:59:04.454Z,27.50
2022-10-16T04:01:31.223Z,26.95
2022-10-16T04:03:57.793Z,25.63
2022-10-16T04:06:24.478Z,23.33
2022-10-16T04:08:51.122Z,22.77
2022-10-16T04:11:17.726Z,19.45
2022-10-16T04:13:44.688Z,16.52
2022-10-16T04:16:11.273Z,14.90
2022-10-16T04:18:38.233Z,19.33
2022-10-16T04:21:06.658Z,13.10
2022-10-16T04:23:33.906Z,16.80
2022-10-16T04:26:00.674Z,13.93
2022-10-16T04:28:27.709Z,15.82
2022-10-16T04:30:54.476Z,19.35
2022-10-16T04:33:21.128Z,16.80
2022-10-16T04:35:47.833Z,20.30
2022-10-16T04:38:15.604Z,23.50
2022-10-16T04:40:43.315Z,20.63
2022-10-16T04:43:10.041Z,21.20
2022-10-16T04:45:36.633Z,23.20
2022-10-16T04:48:03.333Z,25.13
2022-10-16T04:50:29.964Z,23.80
2022-10-16T04:52:56.651Z,20.50
2022-10-16T04:55:23.446Z,26.95
2022-10-16T04:57:50.549Z,26.48
2022-10-16T05:00:17.229Z,25.85
2022-10-16T05:02:43.975Z,26.73
2022-10-16T05:05:10.871Z,26.63
2022-10-16T05:07:37.457Z,31.92
2022-10-16T05:10:04.427Z,29.77
2022-10-16T05:12:31.067Z,29.77
2022-10-16T05:14:59.653Z,27.08
2022-10-16T05:17:27.734Z,30.60
2022-10-16T05:19:55.005Z,177.77
2022-10-16T05:22:21.650Z,221.00
2022-10-16T05:24:48.307Z,200.88
2022-10-16T05:27:19.827Z,143.48
2022-10-16T05:29:50.255Z,32.75
2022-10-16T05:32:18.239Z,33.20
2022-10-16T05:34:45.897Z,107.60
2022-10-16T05:37:13.256Z,35.30
2022-10-16T05:39:40.400Z,39.28
2022-10-16T05:42:07.260Z,38.47
2022-10-16T05:47:05.898Z,52.17
2022-10-16T05:49:32.595Z,40.28
2022-10-16T05:51:59.237Z,38.72
2022-10-16T05:54:25.849Z,36.63
2022-10-16T05:56:52.454Z,31.02
2022-10-16T05:59:19.036Z,31.17
2022-10-16T06:01:45.675Z,30.48
2022-10-16T06:06:43.758Z,29.90
2022-10-16T06:09:10.976Z,23.40
2022-10-16T06:11:37.856Z,26.95
2022-10-16T06:14:07.686Z,22.58
2022-10-16T06:16:35.746Z,29.45
2022-10-16T06:19:05.245Z,24.70
2022-10-16T06:21:31.893Z,24.55
2022-10-16T06:23:59.346Z,20.58
2022-10-16T06:26:28.247Z,24.27
2022-10-16T06:28:56.813Z,24.77
2022-10-16T06:31:24.154Z,21.42
2022-10-16T06:33:54.313Z,20.48
2022-10-16T06:36:21.701Z,16.23
2022-10-16T06:38:48.308Z,20.38
2022-10-16T06:41:17.276Z,17.77
2022-10-16T06:43:45.911Z,20.85
2022-10-16T06:46:14.126Z,17.60
2022-10-16T06:48:42.055Z,17.58
2022-10-16T06:51:16.959Z,16.65
2022-10-16T06:54:02.266Z,15.77
2022-10-16T06:56:31.600Z,14.40
2022-10-16T06:58:58.312Z,15.50
2022-10-16T07:01:25.521Z,17.30
2022-10-16T07:03:52.654Z,18.67
2022-10-16T07:06:21.106Z,15.20
2022-10-16T07:08:48.485Z,12.88
2022-10-16T07:11:18.251Z,17.33
2022-10-16T07:16:21.683Z,13.88
2022-10-16T07:18:50.000Z,11.60
2022-10-16T07:21:20.379Z,16.35
2022-10-16T07:23:50.966Z,9.82
2022-10-16T07:26:17.631Z,9.35
2022-10-16T07:28:44.935Z,7.45
2022-10-16T07:31:17.186Z,8.93
2022-10-16T07:33:45.715Z,9.38
2022-10-16T07:36:16.273Z,11.40
2022-10-16T07:38:43.589Z,6.95
2022-10-16T07:41:13.612Z,10.77
2022-10-16T07:43:40.899Z,11.35
2022-10-16T07:46:07.503Z,8.73
2022-10-16T07:48:36.078Z,9.57
2022-10-16T07:51:07.547Z,9.55
2022-10-16T07:53:34.783Z,9.82
2022-10-16T07:56:11.051Z,9.30
2022-10-16T07:58:38.235Z,6.72
2022-10-16T08:01:07.431Z,7.05
2022-10-16T08:03:34.334Z,5.95
2022-10-16T08:06:01.809Z,5.18
2022-10-16T08:08:29.063Z,8.45
2022-10-16T08:10:56.263Z,8.90
2022-10-16T08:13:23.019Z,6.63
2022-10-16T08:15:49.876Z,5.40
2022-10-16T08:18:17.251Z,5.20
2022-10-16T08:20:44.474Z,4.60
2022-10-16T08:23:13.062Z,3.78
2022-10-16T08:25:40.030Z,5.43
2022-10-16T08:28:07.988Z,6.50
2022-10-16T08:30:35.048Z,5.00
2022-10-16T08:33:02.330Z,5.43
2022-10-16T08:35:29.062Z,5.18
2022-10-16T08:37:55.776Z,7.80
2022-10-16T08:40:34.458Z,9.63
2022-10-16T08:43:12.918Z,6.30
2022-10-16T08:46:07.123Z,6.75
2022-10-16T08:48:50.255Z,6.45
2022-10-16T08:51:25.913Z,7.28
2022-10-16T08:53:57.026Z,7.32
2022-10-16T08:56:25.408Z,7.95
2022-10-16T08:58:58.185Z,10.98
2022-10-16T09:01:48.394Z,7.78
2022-10-16T09:04:33.819Z,8.80
2022-10-16T09:07:25.524Z,10.77
2022-10-16T09:10:17.030Z,10.27
2022-10-16T09:12:49.575Z,14.85
2022-10-16T09:15:35.694Z,14.45
2022-10-16T09:18:16.386Z,9.90
2022-10-16T09:21:07.750Z,11.82
2022-10-16T09:23:38.270Z,9.50
2022-10-16T09:26:10.745Z,11.32
2022-10-16T09:28:37.432Z,8.60
2022-10-16T09:31:04.191Z,9.52
2022-10-16T09:33:36.135Z,10.18
2022-10-16T09:36:05.422Z,9.63
2022-10-16T09:38:35.020Z,8.63
2022-10-16T09:41:19.457Z,9.32
2022-10-16T09:43:59.949Z,9.50
2022-10-16T09:46:38.671Z,10.48
2022-10-16T09:49:27.856Z,12.13
2022-10-16T09:52:13.230Z,14.25
2022-10-16T09:54:50.716Z,9.70
2022-10-16T09:57:17.439Z,9.70
2022-10-16T09:59:53.097Z,8.70
2022-10-16T10:02:27.578Z,7.78
2022-10-16T10:04:55.725Z,11.15
2022-10-16T10:07:29.394Z,10.02
2022-10-16T10:09:58.266Z,10.88
2022-10-16T10:12:37.261Z,10.57
2022-10-16T10:15:22.487Z,7.05
2022-10-16T10:17:53.565Z,7.00
2022-10-16T10:20:24.863Z,6.93
2022-10-16T10:22:51.611Z,8.52
2022-10-16T10:25:43.777Z,8.20
2022-10-16T10:28:25.966Z,6.50
2022-10-16T10:31:01.598Z,4.93
2022-10-16T10:33:50.668Z,4.75
2022-10-16T10:36:39.829Z,4.32
2022-10-16T10:39:48.035Z,6.50
2022-10-16T10:42:45.208Z,4.82
2022-10-16T10:45:27.188Z,4.25
2022-10-16T10:48:04.475Z,5.47
2022-10-16T10:50:43.496Z,6.82
2022-10-16T10:53:47.614Z,6.25
2022-10-16T10:56:40.283Z,9.60
2022-10-16T10:59:34.765Z,8.10
2022-10-16T11:02:05.543Z,8.10
2022-10-16T11:04:46.879Z,8.70
2022-10-16T11:07:48.195Z,10.75
2022-10-16T11:10:22.380Z,9.85
2022-10-16T11:12:58.109Z,11.75
2022-10-16T11:15:35.397Z,6.80
2022-10-16T11:18:31.329Z,7.57
2022-10-16T11:21:06.035Z,8.18
2022-10-16T11:23:47.199Z,7.38
2022-10-16T11:26:28.397Z,9.98
2022-10-16T11:28:57.371Z,7.70
2022-10-16T11:31:33.460Z,13.15
2022-10-16T11:34:38.618Z,11.13
2022-10-16T11:37:20.995Z,7.57
2022-10-16T11:39:48.366Z,7.07
2022-10-16T11:42:22.473Z,10.07
2022-10-16T11:45:01.720Z,10.25
2022-10-16T11:48:04.730Z,11.73
2022-10-16T11:50:52.538Z,8.82
2022-10-16T11:53:25.018Z,5.82
2022-10-16T11:55:52.802Z,9.63
2022-10-16T11:58:35.502Z,5.88
2022-10-16T12:01:10.784Z,7.90
2022-10-16T12:04:15.558Z,8.52
2022-10-16T12:06:47.062Z,9.15
2022-10-16T12:09:27.633Z,7.68
2022-10-16T12:11:54.830Z,9.32
2022-10-16T12:14:42.869Z,10.30
2022-10-16T12:17:21.284Z,9.85
2022-10-16T12:20:00.781Z,8.02
2022-10-16T12:22:31.157Z,7.45
2022-10-16T12:24:58.466Z,6.70
2022-10-16T12:27:35.185Z,6.90
2022-10-16T12:30:06.899Z,7.70
2022-10-16T12:32:46.320Z,6.90
2022-10-16T12:35:29.605Z,7.00
2022-10-16T12:40:44.476Z,7.32
2022-10-16T12:43:29.012Z,5.03
2022-10-16T12:46:07.344Z,4.63
2022-10-16T12:48:48.295Z,6.60
2022-10-16T12:51:36.773Z,5.40
2022-10-16T12:54:08.127Z,6.70
2022-10-16T12:56:37.885Z,5.05
2022-10-16T12:59:36.716Z,4.10
2022-10-16T13:02:40.233Z,6.05
2022-10-16T13:05:12.905Z,4.60
2022-10-16T13:07:49.945Z,6.53
2022-10-16T13:10:41.008Z,6.57
2022-10-16T13:13:19.727Z,3.47
2022-10-16T13:16:00.287Z,3.50
2022-10-16T13:18:40.748Z,2.75
2022-10-16T13:21:18.568Z,2.53
2022-10-16T13:24:05.464Z,3.05
2022-10-16T13:27:02.328Z,2.85
2022-10-16T13:29:33.620Z,2.50
2022-10-16T13:32:02.355Z,3.55
2022-10-16T13:34:29.842Z,2.40
2022-10-16T13:36:56.663Z,4.70
2022-10-16T13:39:29.024Z,4.13
2022-10-16T13:42:16.308Z,2.42
2022-10-16T13:44:51.991Z,3.95
2022-10-16T13:47:24.907Z,4.22
2022-10-16T13:50:02.496Z,2.33
2022-10-16T13:52:30.024Z,4.15
2022-10-16T13:55:00.901Z,3.03
2022-10-16T13:57:29.143Z,3.83
2022-10-16T13:59:56.156Z,3.85
2022-10-16T14:02:46.288Z,10.57
2022-10-16T14:05:15.500Z,5.60
2022-10-16T14:07:43.753Z,2.72
2022-10-16T14:10:31.104Z,2.63
2022-10-16T14:13:04.162Z,2.80
2022-10-16T14:15:32.829Z,5.18
2022-10-16T14:18:00.019Z,7.75
2022-10-16T14:20:31.999Z,5.50
2022-10-16T14:23:04.650Z,3.65
2022-10-16T14:25:33.229Z,3.45
2022-10-16T14:30:37.236Z,3.53
2022-10-16T14:35:47.328Z,4.15
2022-10-16T14:38:21.317Z,3.90
2022-10-16T14:40:50.089Z,6.30
2022-10-16T14:43:23.138Z,3.40
2022-10-16T14:45:57.955Z,5.90
2022-10-16T14:48:25.411Z,4.50
2022-10-16T14:50:52.057Z,3.40
2022-10-16T14:53:18.686Z,3.55
2022-10-16T14:55:45.813Z,3.00
2022-10-16T14:58:19.954Z,2.88
2022-10-16T15:00:47.033Z,2.75
2022-10-16T15:03:13.842Z,5.55
2022-10-16T15:05:40.789Z,3.95
2022-10-16T15:08:07.701Z,4.47
2022-10-16T15:10:39.803Z,4.47
2022-10-16T15:13:06.541Z,4.13
2022-10-16T15:15:43.724Z,4.75
2022-10-16T15:18:10.517Z,5.93
2022-10-16T15:20:39.471Z,8.32
2022-10-16T15:23:16.451Z,6.00
2022-10-16T15:25:53.227Z,6.13
2022-10-16T15:28:20.910Z,6.88
2022-10-16T15:30:50.085Z,8.02
2022-10-16T15:33:19.891Z,6.68
2022-10-16T15:35:51.525Z,5.60
2022-10-16T15:38:19.906Z,5.28
2022-10-16T15:40:47.990Z,15.43
2022-10-16T15:43:15.040Z,13.80
2022-10-16T15:45:41.767Z,4.45
2022-10-16T15:48:12.648Z,4.55
2022-10-16T15:50:40.824Z,5.10
2022-10-16T15:53:07.533Z,7.70
2022-10-16T15:55:35.224Z,6.43
2022-10-16T15:58:01.775Z,5.30
2022-10-16T16:00:28.482Z,5.20
2022-10-16T16:02:55.553Z,9.48
2022-10-16T16:05:23.799Z,10.77
2022-10-16T16:07:51.242Z,11.82
2022-10-16T16:10:19.129Z,8.30
2022-10-16T16:12:52.687Z,10.52
2022-10-16T16:15:21.405Z,9.00
2022-10-16T16:17:48.875Z,8.27
2022-10-16T16:20:15.690Z,8.00
2022-10-16T16:22:42.334Z,12.20
2022-10-16T16:25:09.421Z,8.75
2022-10-16T16:27:36.288Z,10.38
2022-10-16T16:30:04.510Z,11.20
2022-10-16T16:32:31.529Z,7.78
2022-10-16T16:34:58.137Z,14.77
2022-10-16T16:37:25.073Z,14.10
2022-10-16T16:39:52.175Z,15.35
2022-10-16T16:42:18.869Z,11.35
2022-10-16T16:44:45.593Z,9.32
2022-10-16T16:47:12.238Z,20.40
2022-10-16T16:49:38.961Z,11.32
2022-10-16T16:52:05.609Z,9.50
2022-10-16T16:54:32.270Z,12.15
2022-10-16T16:56:58.917Z,12.38
2022-10-16T16:59:25.631Z,8.32
2022-10-16T17:01:56.692Z,15.18
2022-10-16T17:04:24.057Z,14.07
2022-10-16T17:06:50.757Z,18.05
2022-10-16T17:09:17.487Z,22.65
2022-10-16T17:11:45.474Z,21.85
2022-10-16T17:14:12.482Z,14.98
2022-10-16T17:16:41.089Z,22.88
2022-10-16T17:19:15.853Z,12.20
2022-10-16T17:21:43.473Z,21.60
2022-10-16T17:24:10.964Z,16.42
2022-10-16T17:26:38.518Z,11.93
2022-10-16T17:29:05.954Z,11.00
2022-10-16T17:31:36.908Z,20.45
2022-10-16T17:34:06.818Z,15.93
2022-10-16T17:36:35.495Z,14.45
2022-10-16T17:39:08.091Z,17.35
2022-10-16T17:41:35.820Z,19.05
2022-10-16T17:44:03.059Z,13.35
2022-10-16T17:46:29.874Z,17.00
2022-10-16T17:48:56.657Z,18.15
2022-10-16T17:51:27.204Z,16.90
2022-10-16T17:53:56.817Z,11.20
2022-10-16T17:56:24.172Z,15.75
2022-10-16T17:58:53.179Z,21.23
2022-10-16T18:01:46.206Z,18.23
2022-10-16T18:04:16.152Z,24.63
2022-10-16T18:09:13.982Z,24.38
2022-10-16T18:11:40.682Z,21.83
2022-10-16T18:14:07.311Z,20.40
2022-10-16T18:16:36.499Z,15.15
2022-10-16T18:19:03.256Z,19.02
2022-10-16T18:21:30.088Z,51.67
2022-10-16T18:23:58.947Z,26.05
2022-10-16T18:26:26.132Z,36.30
2022-10-16T18:28:53.779Z,36.03
2022-10-16T18:31:21.250Z,37.13
2022-10-16T18:33:50.226Z,16.30
2022-10-16T18:36:23.114Z,21.88
2022-10-16T18:38:50.079Z,22.60
2022-10-16T18:41:16.793Z,27.13
2022-10-16T18:43:43.858Z,27.40
2022-10-16T18:46:13.707Z,17.25
2022-10-16T18:48:40.385Z,19.92
2022-10-16T18:51:11.438Z,17.83
2022-10-16T18:53:39.838Z,12.88
2022-10-16T18:56:06.940Z,15.93
2022-10-16T18:58:35.115Z,19.20
2022-10-16T19:01:07.065Z,39.33
2022-10-16T19:03:34.222Z,71.82
2022-10-16T19:06:06.943Z,44.58
2022-10-16T19:08:34.207Z,42.97
2022-10-16T19:11:15.468Z,29.25
2022-10-16T19:13:43.259Z,36.40
2022-10-16T19:16:20.329Z,31.15
2022-10-16T19:18:49.528Z,37.60
2022-10-16T19:21:16.581Z,28.38
2022-10-16T19:23:43.759Z,34.22
2022-10-16T19:26:13.463Z,28.67
2022-10-16T19:31:11.680Z,34.05
2022-10-16T19:33:38.884Z,37.53
2022-10-16T19:36:10.553Z,32.50
2022-10-16T19:38:37.856Z,40.75
2022-10-16T19:41:09.023Z,37.13
2022-10-16T19:43:36.034Z,31.10
2022-10-16T19:46:04.589Z,27.83
2022-10-16T19:48:31.284Z,24.98
2022-10-16T19:50:58.160Z,26.77
2022-10-16T19:53:26.258Z,26.70
2022-10-16T19:55:52.966Z,19.00
2022-10-16T19:58:19.600Z,22.25
2022-10-16T20:00:46.230Z,23.63
2022-10-16T20:03:13.208Z,22.73
2022-10-16T20:05:39.798Z,20.77
2022-10-16T20:08:06.657Z,24.25
2022-10-16T20:10:33.385Z,17.67
2022-10-16T20:13:00.046Z,14.30
2022-10-16T20:15:26.674Z,17.98
2022-10-16T20:17:53.315Z,17.40
2022-10-16T20:20:19.955Z,12.75
2022-10-16T20:22:46.538Z,21.85
2022-10-16T20:25:16.776Z,14.35
2022-10-16T20:27:45.561Z,16.50
2022-10-16T20:30:12.134Z,12.27
2022-10-16T20:32:38.894Z,15.18
2022-10-16T20:35:07.892Z,19.35
2022-10-16T20:37:34.666Z,15.43
2022-10-16T20:40:01.569Z,19.45
2022-10-16T20:42:28.260Z,22.55
2022-10-16T20:44:54.952Z,19.20
2022-10-16T20:47:21.690Z,23.83
2022-10-16T20:49:48.249Z,14.80
2022-10-16T20:52:14.860Z,13.82
2022-10-16T20:54:44.212Z,17.85
2022-10-16T20:57:10.825Z,19.92
2022-10-16T20:59:37.467Z,11.45
2022-10-16T21:02:05.516Z,12.75
2022-10-16T21:04:32.220Z,11.70
2022-10-16T21:06:58.898Z,22.98
2022-10-16T21:09:25.523Z,14.57
2022-10-16T21:11:52.100Z,12.25
2022-10-16T21:14:18.708Z,15.32
2022-10-16T21:16:45.371Z,14.02
2022-10-16T21:19:11.973Z,16.50
2022-10-16T21:21:38.826Z,19.75
2022-10-16T21:24:06.178Z,19.48
2022-10-16T21:26:33.336Z,14.93
2022-10-16T21:29:04.326Z,16.33
2022-10-16T21:31:31.731Z,28.23
2022-10-16T21:33:58.419Z,13.27
2022-10-16T21:36:27.561Z,26.42
2022-10-16T21:38:54.616Z,17.15
2022-10-16T21:41:27.296Z,14.85
2022-10-16T21:43:55.340Z,17.40
2022-10-16T21:46:24.881Z,15.75
2022-10-16T21:48:59.581Z,21.10
2022-10-16T21:51:34.931Z,19.75
2022-10-16T21:54:02.687Z,15.98
2022-10-16T21:56:29.773Z,17.48
2022-10-16T21:58:56.977Z,16.33
2022-10-16T22:01:25.747Z,13.10
2022-10-16T22:03:52.456Z,17.10
2022-10-16T22:11:31.305Z,12.63
2022-10-16T22:13:59.045Z,18.20
2022-10-16T22:16:27.001Z,17.90
2022-10-16T22:18:57.142Z,13.35
2022-10-16T22:21:24.481Z,20.67
2022-10-16T22:23:51.750Z,17.42
2022-10-16T22:26:18.492Z,18.55
2022-10-16T22:28:45.186Z,12.15
2022-10-16T22:31:14.321Z,14.65
2022-10-16T22:33:41.271Z,10.38
2022-10-16T22:36:11.486Z,18.27
2022-10-16T22:38:38.543Z,14.60
2022-10-16T22:41:11.305Z,13.23
2022-10-16T22:43:40.212Z,16.42
2022-10-16T22:46:08.733Z,25.02
2022-10-16T22:48:36.248Z,14.18
2022-10-16T22:51:04.707Z,11.82
2022-10-16T22:53:32.318Z,15.45
2022-10-16T22:55:58.961Z,9.50
2022-10-16T22:58:25.919Z,20.67
2022-10-16T23:00:52.677Z,13.57
2022-10-16T23:03:19.437Z,8.95
2022-10-16T23:05:46.156Z,12.05
2022-10-16T23:08:13.491Z,8.30
2022-10-16T23:10:42.277Z,14.75
2022-10-16T23:13:09.285Z,13.40
2022-10-16T23:15:43.717Z,12.70
2022-10-16T23:18:11.614Z,11.82
2022-10-16T23:20:41.506Z,13.23
2022-10-16T23:23:08.886Z,7.25
2022-10-16T23:25:36.075Z,8.68
2022-10-16T23:28:03.563Z,13.55
2022-10-16T23:30:30.246Z,10.48
2022-10-16T23:32:56.952Z,7.57
2022-10-16T23:35:23.744Z,13.07
2022-10-16T23:37:51.465Z,13.48
2022-10-16T23:40:18.515Z,9.43
2022-10-16T23:42:45.166Z,9.32
2022-10-16T23:45:11.765Z,8.00
2022-10-16T23:47:38.351Z,10.35
2022-10-16T23:50:05.457Z,11.70
2022-10-16T23:52:32.031Z,8.88
2022-10-16T23:54:58.644Z,8.07
2022-10-16T23:57:25.914Z,12.02
2022-10-16T23:59:52.828Z,11.05
